sensor_id;sensor_type;location;lat;lon;timestamp;temperature;humidity
21522;DHT22;10922;45.572;10.002;2023-05-29T00:01:23;20.80;99.90
21522;DHT22;10922;45.572;10.002;2023-05-29T00:03:50;20.80;99.90
21522;DHT22;10922;45.572;10.002;2023-05-29T00:06:16;20.70;99.90
21522;DHT22;10922;45.572;10.002;2023-05-29T00:08:41;20.70;99.90
21522;DHT22;10922;45.572;10.002;2023-05-29T00:11:07;20.70;99.90
21522;DHT22;10922;45.572;10.002;2023-05-29T00:13:33;20.70;99.90
21522;DHT22;10922;45.572;10.002;2023-05-29T00:15:59;20.70;99.90
21522;DHT22;10922;45.572;10.002;2023-05-29T00:18:26;20.70;99.90
21522;DHT22;10922;45.572;10.002;2023-05-29T00:20:52;20.70;99.90
21522;DHT22;10922;45.572;10.002;2023-05-29T00:23:18;20.70;99.90
21522;DHT22;10922;45.572;10.002;2023-05-29T00:25:44;20.70;99.90
21522;DHT22;10922;45.572;10.002;2023-05-29T00:28:10;20.70;99.90
21522;DHT22;10922;45.572;10.002;2023-05-29T00:30:38;20.70;99.90
21522;DHT22;10922;45.572;10.002;2023-05-29T00:33:03;20.60;99.90
21522;DHT22;10922;45.572;10.002;2023-05-29T00:35:29;20.60;99.90
21522;DHT22;10922;45.572;10.002;2023-05-29T00:37:55;20.60;99.90
21522;DHT22;10922;45.572;10.002;2023-05-29T00:40:21;20.60;99.90
21522;DHT22;10922;45.572;10.002;2023-05-29T00:42:46;20.60;99.90
21522;DHT22;10922;45.572;10.002;2023-05-29T00:45:12;20.60;99.90
21522;DHT22;10922;45.572;10.002;2023-05-29T00:47:40;20.60;99.90
21522;DHT22;10922;45.572;10.002;2023-05-29T00:50:06;20.60;99.90
21522;DHT22;10922;45.572;10.002;2023-05-29T00:52:33;20.60;99.90
21522;DHT22;10922;45.572;10.002;2023-05-29T00:54:59;20.60;99.90
21522;DHT22;10922;45.572;10.002;2023-05-29T00:57:27;20.60;99.90
21522;DHT22;10922;45.572;10.002;2023-05-29T00:59:54;20.50;99.90
21522;DHT22;10922;45.572;10.002;2023-05-29T01:02:20;20.50;99.90
21522;DHT22;10922;45.572;10.002;2023-05-29T01:04:47;20.50;99.90
21522;DHT22;10922;45.572;10.002;2023-05-29T01:07:13;20.50;99.90
21522;DHT22;10922;45.572;10.002;2023-05-29T01:09:39;20.50;99.90
21522;DHT22;10922;45.572;10.002;2023-05-29T01:12:23;20.40;99.90
21522;DHT22;10922;45.572;10.002;2023-05-29T01:21:38;20.20;99.90
21522;DHT22;10922;45.572;10.002;2023-05-29T01:28:57;20.30;99.90
21522;DHT22;10922;45.572;10.002;2023-05-29T01:31:26;20.30;99.90
21522;DHT22;10922;45.572;10.002;2023-05-29T01:33:54;20.30;99.90
21522;DHT22;10922;45.572;10.002;2023-05-29T01:36:20;20.30;99.90
21522;DHT22;10922;45.572;10.002;2023-05-29T01:38:47;20.20;99.90
21522;DHT22;10922;45.572;10.002;2023-05-29T01:41:14;20.20;99.90
21522;DHT22;10922;45.572;10.002;2023-05-29T01:43:40;20.20;99.90
21522;DHT22;10922;45.572;10.002;2023-05-29T01:46:07;20.10;99.90
21522;DHT22;10922;45.572;10.002;2023-05-29T01:48:32;20.10;99.90
21522;DHT22;10922;45.572;10.002;2023-05-29T01:50:59;20.10;99.90
21522;DHT22;10922;45.572;10.002;2023-05-29T01:53:24;20.10;99.90
21522;DHT22;10922;45.572;10.002;2023-05-29T01:55:51;20.10;99.90
21522;DHT22;10922;45.572;10.002;2023-05-29T01:58:17;20.00;99.90
21522;DHT22;10922;45.572;10.002;2023-05-29T02:00:46;20.00;99.90
21522;DHT22;10922;45.572;10.002;2023-05-29T02:03:12;20.00;99.90
21522;DHT22;10922;45.572;10.002;2023-05-29T02:05:38;19.90;99.90
21522;DHT22;10922;45.572;10.002;2023-05-29T02:08:03;19.80;99.90
21522;DHT22;10922;45.572;10.002;2023-05-29T02:10:29;19.90;99.90
21522;DHT22;10922;45.572;10.002;2023-05-29T02:12:55;19.90;99.90
21522;DHT22;10922;45.572;10.002;2023-05-29T02:15:22;19.90;99.90
21522;DHT22;10922;45.572;10.002;2023-05-29T02:17:48;19.90;99.90
21522;DHT22;10922;45.572;10.002;2023-05-29T02:20:15;19.80;99.90
21522;DHT22;10922;45.572;10.002;2023-05-29T02:22:41;19.80;99.90
21522;DHT22;10922;45.572;10.002;2023-05-29T02:25:07;19.80;99.90
21522;DHT22;10922;45.572;10.002;2023-05-29T02:27:33;19.70;99.90
21522;DHT22;10922;45.572;10.002;2023-05-29T02:29:59;19.70;99.90
21522;DHT22;10922;45.572;10.002;2023-05-29T02:32:24;19.70;99.90
21522;DHT22;10922;45.572;10.002;2023-05-29T02:34:53;19.70;99.90
21522;DHT22;10922;45.572;10.002;2023-05-29T02:37:18;19.70;99.90
21522;DHT22;10922;45.572;10.002;2023-05-29T02:39:44;19.70;99.90
21522;DHT22;10922;45.572;10.002;2023-05-29T02:42:10;19.70;99.90
21522;DHT22;10922;45.572;10.002;2023-05-29T02:44:35;19.80;99.90
21522;DHT22;10922;45.572;10.002;2023-05-29T02:47:01;19.80;99.90
21522;DHT22;10922;45.572;10.002;2023-05-29T02:49:27;19.80;99.90
21522;DHT22;10922;45.572;10.002;2023-05-29T02:51:52;19.80;99.90
21522;DHT22;10922;45.572;10.002;2023-05-29T02:54:23;19.80;99.90
21522;DHT22;10922;45.572;10.002;2023-05-29T02:56:49;19.80;99.90
21522;DHT22;10922;45.572;10.002;2023-05-29T02:59:15;19.80;99.90
21522;DHT22;10922;45.572;10.002;2023-05-29T03:01:41;19.80;99.90
21522;DHT22;10922;45.572;10.002;2023-05-29T03:04:08;19.70;99.90
21522;DHT22;10922;45.572;10.002;2023-05-29T03:06:35;19.70;99.90
21522;DHT22;10922;45.572;10.002;2023-05-29T03:09:04;19.60;99.90
21522;DHT22;10922;45.572;10.002;2023-05-29T03:11:31;19.60;99.90
21522;DHT22;10922;45.572;10.002;2023-05-29T03:13:56;19.60;99.90
21522;DHT22;10922;45.572;10.002;2023-05-29T03:16:22;19.50;99.90
21522;DHT22;10922;45.572;10.002;2023-05-29T03:18:48;19.50;99.90
21522;DHT22;10922;45.572;10.002;2023-05-29T03:21:17;19.50;99.90
21522;DHT22;10922;45.572;10.002;2023-05-29T03:23:43;19.50;99.90
21522;DHT22;10922;45.572;10.002;2023-05-29T03:26:08;19.50;99.90
21522;DHT22;10922;45.572;10.002;2023-05-29T03:28:34;19.40;99.90
21522;DHT22;10922;45.572;10.002;2023-05-29T03:31:00;19.50;99.90
21522;DHT22;10922;45.572;10.002;2023-05-29T03:33:25;19.40;99.90
21522;DHT22;10922;45.572;10.002;2023-05-29T03:35:51;19.50;99.90
21522;DHT22;10922;45.572;10.002;2023-05-29T03:38:17;19.50;99.90
21522;DHT22;10922;45.572;10.002;2023-05-29T03:40:42;19.40;99.90
21522;DHT22;10922;45.572;10.002;2023-05-29T03:43:08;19.40;99.90
21522;DHT22;10922;45.572;10.002;2023-05-29T03:45:34;19.40;99.90
21522;DHT22;10922;45.572;10.002;2023-05-29T03:47:59;19.40;99.90
21522;DHT22;10922;45.572;10.002;2023-05-29T03:50:25;19.50;99.90
21522;DHT22;10922;45.572;10.002;2023-05-29T03:52:51;19.50;99.90
21522;DHT22;10922;45.572;10.002;2023-05-29T03:55:16;19.50;99.90
21522;DHT22;10922;45.572;10.002;2023-05-29T03:57:42;19.40;99.90
21522;DHT22;10922;45.572;10.002;2023-05-29T04:00:09;19.40;99.90
21522;DHT22;10922;45.572;10.002;2023-05-29T04:02:39;19.40;99.90
21522;DHT22;10922;45.572;10.002;2023-05-29T04:05:05;19.40;99.90
21522;DHT22;10922;45.572;10.002;2023-05-29T04:07:38;19.40;99.90
21522;DHT22;10922;45.572;10.002;2023-05-29T04:10:05;19.40;99.90
21522;DHT22;10922;45.572;10.002;2023-05-29T04:12:32;19.40;99.90
21522;DHT22;10922;45.572;10.002;2023-05-29T04:14:58;19.50;99.90
21522;DHT22;10922;45.572;10.002;2023-05-29T04:17:24;19.50;99.90
21522;DHT22;10922;45.572;10.002;2023-05-29T04:19:49;19.50;99.90
21522;DHT22;10922;45.572;10.002;2023-05-29T04:22:15;19.60;99.90
21522;DHT22;10922;45.572;10.002;2023-05-29T04:24:41;19.60;99.90
21522;DHT22;10922;45.572;10.002;2023-05-29T04:27:08;19.60;99.90
21522;DHT22;10922;45.572;10.002;2023-05-29T04:29:34;19.50;99.90
21522;DHT22;10922;45.572;10.002;2023-05-29T04:32:00;19.50;99.90
21522;DHT22;10922;45.572;10.002;2023-05-29T04:34:29;19.50;99.90
21522;DHT22;10922;45.572;10.002;2023-05-29T04:36:56;19.40;99.90
21522;DHT22;10922;45.572;10.002;2023-05-29T04:39:23;19.30;99.90
21522;DHT22;10922;45.572;10.002;2023-05-29T04:41:50;19.30;99.90
21522;DHT22;10922;45.572;10.002;2023-05-29T04:44:19;19.40;99.90
21522;DHT22;10922;45.572;10.002;2023-05-29T04:46:45;19.40;99.90
21522;DHT22;10922;45.572;10.002;2023-05-29T04:49:12;19.50;99.90
21522;DHT22;10922;45.572;10.002;2023-05-29T04:51:41;19.50;99.90
21522;DHT22;10922;45.572;10.002;2023-05-29T04:54:07;19.50;99.90
21522;DHT22;10922;45.572;10.002;2023-05-29T04:56:34;19.60;99.90
21522;DHT22;10922;45.572;10.002;2023-05-29T04:59:00;19.60;99.90
21522;DHT22;10922;45.572;10.002;2023-05-29T05:01:26;19.70;99.90
21522;DHT22;10922;45.572;10.002;2023-05-29T05:03:51;19.70;99.90
21522;DHT22;10922;45.572;10.002;2023-05-29T05:06:21;19.80;99.90
21522;DHT22;10922;45.572;10.002;2023-05-29T05:08:47;19.90;99.90
21522;DHT22;10922;45.572;10.002;2023-05-29T05:11:13;20.00;99.90
21522;DHT22;10922;45.572;10.002;2023-05-29T05:13:39;20.10;99.90
21522;DHT22;10922;45.572;10.002;2023-05-29T05:16:05;20.10;99.90
21522;DHT22;10922;45.572;10.002;2023-05-29T05:18:31;20.10;99.90
21522;DHT22;10922;45.572;10.002;2023-05-29T05:20:56;20.10;99.90
21522;DHT22;10922;45.572;10.002;2023-05-29T05:23:22;20.30;99.90
21522;DHT22;10922;45.572;10.002;2023-05-29T05:25:48;20.40;99.90
21522;DHT22;10922;45.572;10.002;2023-05-29T05:28:13;20.50;99.90
21522;DHT22;10922;45.572;10.002;2023-05-29T05:30:39;20.50;99.90
21522;DHT22;10922;45.572;10.002;2023-05-29T05:33:05;20.50;99.90
21522;DHT22;10922;45.572;10.002;2023-05-29T05:35:30;20.60;99.90
21522;DHT22;10922;45.572;10.002;2023-05-29T05:37:56;20.50;99.90
21522;DHT22;10922;45.572;10.002;2023-05-29T05:40:24;20.50;99.90
21522;DHT22;10922;45.572;10.002;2023-05-29T05:42:50;20.50;99.90
21522;DHT22;10922;45.572;10.002;2023-05-29T05:45:16;20.50;99.90
21522;DHT22;10922;45.572;10.002;2023-05-29T05:47:42;20.50;99.90
21522;DHT22;10922;45.572;10.002;2023-05-29T05:50:08;20.40;99.90
21522;DHT22;10922;45.572;10.002;2023-05-29T05:52:34;20.50;99.90
21522;DHT22;10922;45.572;10.002;2023-05-29T05:54:59;20.50;99.90
21522;DHT22;10922;45.572;10.002;2023-05-29T05:57:26;20.50;99.90
21522;DHT22;10922;45.572;10.002;2023-05-29T05:59:52;20.50;99.90
21522;DHT22;10922;45.572;10.002;2023-05-29T06:02:18;20.50;99.90
21522;DHT22;10922;45.572;10.002;2023-05-29T06:04:44;20.50;99.90
21522;DHT22;10922;45.572;10.002;2023-05-29T06:07:09;20.50;99.90
21522;DHT22;10922;45.572;10.002;2023-05-29T06:09:36;20.60;99.90
21522;DHT22;10922;45.572;10.002;2023-05-29T06:12:02;20.60;99.90
21522;DHT22;10922;45.572;10.002;2023-05-29T06:14:27;20.50;99.90
21522;DHT22;10922;45.572;10.002;2023-05-29T06:16:53;20.60;99.90
21522;DHT22;10922;45.572;10.002;2023-05-29T06:19:19;20.50;99.90
21522;DHT22;10922;45.572;10.002;2023-05-29T06:21:45;20.50;99.90
21522;DHT22;10922;45.572;10.002;2023-05-29T06:24:12;20.60;99.90
21522;DHT22;10922;45.572;10.002;2023-05-29T06:26:38;20.60;99.90
21522;DHT22;10922;45.572;10.002;2023-05-29T06:29:04;20.80;99.90
21522;DHT22;10922;45.572;10.002;2023-05-29T06:31:31;20.80;99.90
21522;DHT22;10922;45.572;10.002;2023-05-29T06:33:58;20.70;99.90
21522;DHT22;10922;45.572;10.002;2023-05-29T06:36:24;20.70;99.90
21522;DHT22;10922;45.572;10.002;2023-05-29T06:38:50;20.70;99.90
21522;DHT22;10922;45.572;10.002;2023-05-29T06:41:16;20.60;99.90
21522;DHT22;10922;45.572;10.002;2023-05-29T06:43:42;20.60;99.90
21522;DHT22;10922;45.572;10.002;2023-05-29T06:46:08;20.70;99.90
21522;DHT22;10922;45.572;10.002;2023-05-29T06:48:34;20.70;99.90
21522;DHT22;10922;45.572;10.002;2023-05-29T06:51:03;20.60;99.90
21522;DHT22;10922;45.572;10.002;2023-05-29T06:53:38;20.60;99.90
21522;DHT22;10922;45.572;10.002;2023-05-29T06:56:04;20.50;99.90
21522;DHT22;10922;45.572;10.002;2023-05-29T06:58:31;20.50;99.90
21522;DHT22;10922;45.572;10.002;2023-05-29T07:00:57;20.40;99.90
21522;DHT22;10922;45.572;10.002;2023-05-29T07:03:23;20.50;99.90
21522;DHT22;10922;45.572;10.002;2023-05-29T07:05:49;20.40;99.90
21522;DHT22;10922;45.572;10.002;2023-05-29T07:08:14;20.50;99.90
21522;DHT22;10922;45.572;10.002;2023-05-29T07:10:40;20.60;99.90
21522;DHT22;10922;45.572;10.002;2023-05-29T07:13:06;20.60;99.90
21522;DHT22;10922;45.572;10.002;2023-05-29T07:15:32;20.80;99.90
21522;DHT22;10922;45.572;10.002;2023-05-29T07:17:57;20.90;99.90
21522;DHT22;10922;45.572;10.002;2023-05-29T07:20:23;21.00;99.90
21522;DHT22;10922;45.572;10.002;2023-05-29T07:22:49;21.10;99.90
21522;DHT22;10922;45.572;10.002;2023-05-29T07:25:14;21.30;99.90
21522;DHT22;10922;45.572;10.002;2023-05-29T07:27:40;21.30;99.90
21522;DHT22;10922;45.572;10.002;2023-05-29T07:30:07;21.50;99.90
21522;DHT22;10922;45.572;10.002;2023-05-29T07:32:32;21.50;99.90
21522;DHT22;10922;45.572;10.002;2023-05-29T07:34:58;21.50;99.90
21522;DHT22;10922;45.572;10.002;2023-05-29T07:37:24;21.60;99.90
21522;DHT22;10922;45.572;10.002;2023-05-29T07:39:50;21.50;99.90
21522;DHT22;10922;45.572;10.002;2023-05-29T07:42:15;21.80;99.90
21522;DHT22;10922;45.572;10.002;2023-05-29T07:44:41;21.60;99.90
21522;DHT22;10922;45.572;10.002;2023-05-29T07:47:08;21.50;99.90
21522;DHT22;10922;45.572;10.002;2023-05-29T07:49:34;21.30;99.90
21522;DHT22;10922;45.572;10.002;2023-05-29T07:52:02;21.20;99.90
21522;DHT22;10922;45.572;10.002;2023-05-29T07:54:27;21.10;99.90
21522;DHT22;10922;45.572;10.002;2023-05-29T07:56:53;21.10;99.90
21522;DHT22;10922;45.572;10.002;2023-05-29T07:59:18;21.00;99.90
21522;DHT22;10922;45.572;10.002;2023-05-29T08:01:44;21.10;99.90
21522;DHT22;10922;45.572;10.002;2023-05-29T08:04:11;21.10;99.90
21522;DHT22;10922;45.572;10.002;2023-05-29T08:06:36;21.00;99.90
21522;DHT22;10922;45.572;10.002;2023-05-29T08:09:02;20.90;99.90
21522;DHT22;10922;45.572;10.002;2023-05-29T08:11:28;20.90;99.90
21522;DHT22;10922;45.572;10.002;2023-05-29T08:13:54;21.00;99.90
21522;DHT22;10922;45.572;10.002;2023-05-29T08:16:20;21.00;99.90
21522;DHT22;10922;45.572;10.002;2023-05-29T08:18:47;21.00;99.90
21522;DHT22;10922;45.572;10.002;2023-05-29T08:21:13;21.10;99.90
21522;DHT22;10922;45.572;10.002;2023-05-29T08:23:39;21.10;99.90
21522;DHT22;10922;45.572;10.002;2023-05-29T08:26:05;21.10;99.90
21522;DHT22;10922;45.572;10.002;2023-05-29T08:28:31;21.00;99.90
21522;DHT22;10922;45.572;10.002;2023-05-29T08:30:56;21.10;99.90
21522;DHT22;10922;45.572;10.002;2023-05-29T08:33:22;21.20;99.90
21522;DHT22;10922;45.572;10.002;2023-05-29T08:35:48;21.20;99.90
21522;DHT22;10922;45.572;10.002;2023-05-29T08:38:13;21.20;99.90
21522;DHT22;10922;45.572;10.002;2023-05-29T08:40:40;21.30;99.90
21522;DHT22;10922;45.572;10.002;2023-05-29T08:43:07;21.30;99.90
21522;DHT22;10922;45.572;10.002;2023-05-29T08:45:40;21.30;99.90
21522;DHT22;10922;45.572;10.002;2023-05-29T08:48:07;21.40;99.90
21522;DHT22;10922;45.572;10.002;2023-05-29T08:50:34;21.50;99.90
21522;DHT22;10922;45.572;10.002;2023-05-29T08:53:00;21.60;99.90
21522;DHT22;10922;45.572;10.002;2023-05-29T08:55:26;21.50;99.90
21522;DHT22;10922;45.572;10.002;2023-05-29T08:57:52;21.60;99.90
21522;DHT22;10922;45.572;10.002;2023-05-29T09:00:18;21.70;99.90
21522;DHT22;10922;45.572;10.002;2023-05-29T09:02:45;21.70;99.90
21522;DHT22;10922;45.572;10.002;2023-05-29T09:05:11;21.90;99.90
21522;DHT22;10922;45.572;10.002;2023-05-29T09:07:38;21.80;99.90
21522;DHT22;10922;45.572;10.002;2023-05-29T09:10:05;21.90;99.90
21522;DHT22;10922;45.572;10.002;2023-05-29T09:12:32;21.90;99.90
21522;DHT22;10922;45.572;10.002;2023-05-29T09:14:58;22.00;99.90
21522;DHT22;10922;45.572;10.002;2023-05-29T09:17:24;22.00;99.90
21522;DHT22;10922;45.572;10.002;2023-05-29T09:19:50;22.10;99.90
21522;DHT22;10922;45.572;10.002;2023-05-29T09:22:16;22.10;99.90
21522;DHT22;10922;45.572;10.002;2023-05-29T09:24:45;22.20;99.90
21522;DHT22;10922;45.572;10.002;2023-05-29T09:27:11;22.20;99.90
21522;DHT22;10922;45.572;10.002;2023-05-29T09:29:41;22.20;99.90
21522;DHT22;10922;45.572;10.002;2023-05-29T09:32:08;22.30;99.90
21522;DHT22;10922;45.572;10.002;2023-05-29T09:34:34;22.40;99.90
21522;DHT22;10922;45.572;10.002;2023-05-29T09:37:04;22.40;99.90
21522;DHT22;10922;45.572;10.002;2023-05-29T09:39:47;22.50;99.90
21522;DHT22;10922;45.572;10.002;2023-05-29T09:42:14;22.60;99.90
21522;DHT22;10922;45.572;10.002;2023-05-29T09:44:41;22.40;99.90
21522;DHT22;10922;45.572;10.002;2023-05-29T09:47:07;22.40;99.90
21522;DHT22;10922;45.572;10.002;2023-05-29T09:49:33;22.50;99.90
21522;DHT22;10922;45.572;10.002;2023-05-29T09:51:59;22.70;99.90
21522;DHT22;10922;45.572;10.002;2023-05-29T09:54:27;23.00;99.90
21522;DHT22;10922;45.572;10.002;2023-05-29T09:56:58;22.90;99.90
21522;DHT22;10922;45.572;10.002;2023-05-29T09:59:24;22.90;99.90
21522;DHT22;10922;45.572;10.002;2023-05-29T10:02:05;23.00;99.90
21522;DHT22;10922;45.572;10.002;2023-05-29T10:04:36;23.00;99.90
21522;DHT22;10922;45.572;10.002;2023-05-29T10:07:25;22.90;99.90
21522;DHT22;10922;45.572;10.002;2023-05-29T10:10:03;23.00;99.90
21522;DHT22;10922;45.572;10.002;2023-05-29T10:12:31;23.10;99.90
21522;DHT22;10922;45.572;10.002;2023-05-29T10:14:59;23.30;99.90
21522;DHT22;10922;45.572;10.002;2023-05-29T10:17:32;23.40;99.90
21522;DHT22;10922;45.572;10.002;2023-05-29T10:20:01;23.30;99.90
21522;DHT22;10922;45.572;10.002;2023-05-29T10:22:28;23.20;99.90
21522;DHT22;10922;45.572;10.002;2023-05-29T10:24:56;23.40;99.90
21522;DHT22;10922;45.572;10.002;2023-05-29T10:27:23;23.20;99.90
21522;DHT22;10922;45.572;10.002;2023-05-29T10:29:54;23.40;99.90
21522;DHT22;10922;45.572;10.002;2023-05-29T10:33:26;23.50;99.90
21522;DHT22;10922;45.572;10.002;2023-05-29T10:35:48;23.50;99.90
21522;DHT22;10922;45.572;10.002;2023-05-29T10:38:17;23.90;99.90
21522;DHT22;10922;45.572;10.002;2023-05-29T10:40:44;24.00;99.90
21522;DHT22;10922;45.572;10.002;2023-05-29T10:43:33;24.00;99.90
21522;DHT22;10922;45.572;10.002;2023-05-29T10:46:00;24.10;99.90
21522;DHT22;10922;45.572;10.002;2023-05-29T10:50:55;24.10;99.90
21522;DHT22;10922;45.572;10.002;2023-05-29T10:53:26;24.00;99.90
21522;DHT22;10922;45.572;10.002;2023-05-29T10:55:53;24.00;99.90
21522;DHT22;10922;45.572;10.002;2023-05-29T10:58:23;24.30;99.90
21522;DHT22;10922;45.572;10.002;2023-05-29T11:00:50;24.60;99.90
21522;DHT22;10922;45.572;10.002;2023-05-29T11:03:31;25.20;99.90
21522;DHT22;10922;45.572;10.002;2023-05-29T11:05:59;25.10;99.90
21522;DHT22;10922;45.572;10.002;2023-05-29T11:10:59;24.70;99.90
21522;DHT22;10922;45.572;10.002;2023-05-29T11:13:36;24.70;99.90
21522;DHT22;10922;45.572;10.002;2023-05-29T11:16:05;25.30;99.90
21522;DHT22;10922;45.572;10.002;2023-05-29T11:18:31;25.70;99.90
21522;DHT22;10922;45.572;10.002;2023-05-29T11:21:05;25.40;99.90
21522;DHT22;10922;45.572;10.002;2023-05-29T11:23:40;25.20;99.90
21522;DHT22;10922;45.572;10.002;2023-05-29T11:26:08;25.60;99.90
21522;DHT22;10922;45.572;10.002;2023-05-29T11:28:36;25.70;99.90
21522;DHT22;10922;45.572;10.002;2023-05-29T11:31:08;25.30;99.90
21522;DHT22;10922;45.572;10.002;2023-05-29T11:33:38;25.20;99.90
21522;DHT22;10922;45.572;10.002;2023-05-29T11:36:05;25.30;99.90
21522;DHT22;10922;45.572;10.002;2023-05-29T11:38:32;25.70;99.90
21522;DHT22;10922;45.572;10.002;2023-05-29T11:40:57;26.00;99.90
21522;DHT22;10922;45.572;10.002;2023-05-29T11:43:24;25.70;99.90
21522;DHT22;10922;45.572;10.002;2023-05-29T11:45:50;26.00;99.90
21522;DHT22;10922;45.572;10.002;2023-05-29T11:48:16;25.90;99.90
21522;DHT22;10922;45.572;10.002;2023-05-29T11:50:41;25.90;99.90
21522;DHT22;10922;45.572;10.002;2023-05-29T11:53:07;25.20;99.90
21522;DHT22;10922;45.572;10.002;2023-05-29T11:55:33;25.20;99.90
21522;DHT22;10922;45.572;10.002;2023-05-29T11:58:01;25.30;99.90
21522;DHT22;10922;45.572;10.002;2023-05-29T12:00:38;25.30;99.90
21522;DHT22;10922;45.572;10.002;2023-05-29T12:03:05;25.70;99.90
21522;DHT22;10922;45.572;10.002;2023-05-29T12:05:43;25.80;99.90
21522;DHT22;10922;45.572;10.002;2023-05-29T12:08:09;25.80;99.90
21522;DHT22;10922;45.572;10.002;2023-05-29T12:10:35;25.80;99.90
21522;DHT22;10922;45.572;10.002;2023-05-29T12:13:01;25.70;99.90
21522;DHT22;10922;45.572;10.002;2023-05-29T12:15:27;26.00;99.90
21522;DHT22;10922;45.572;10.002;2023-05-29T12:17:53;26.30;99.90
21522;DHT22;10922;45.572;10.002;2023-05-29T12:20:22;26.40;99.90
21522;DHT22;10922;45.572;10.002;2023-05-29T12:22:49;26.60;99.90
21522;DHT22;10922;45.572;10.002;2023-05-29T12:25:17;27.00;99.90
21522;DHT22;10922;45.572;10.002;2023-05-29T12:27:44;27.20;99.90
21522;DHT22;10922;45.572;10.002;2023-05-29T12:30:22;27.50;99.90
21522;DHT22;10922;45.572;10.002;2023-05-29T12:32:50;27.70;99.90
21522;DHT22;10922;45.572;10.002;2023-05-29T12:35:27;27.70;99.90
21522;DHT22;10922;45.572;10.002;2023-05-29T12:42:57;27.60;99.90
21522;DHT22;10922;45.572;10.002;2023-05-29T12:45:25;31.10;99.90
21522;DHT22;10922;45.572;10.002;2023-05-29T12:50:21;33.80;99.90
21522;DHT22;10922;45.572;10.002;2023-05-29T12:55:20;35.50;99.90
21522;DHT22;10922;45.572;10.002;2023-05-29T12:57:46;36.40;99.90
21522;DHT22;10922;45.572;10.002;2023-05-29T13:00:13;36.60;99.90
21522;DHT22;10922;45.572;10.002;2023-05-29T13:02:38;37.10;99.90
21522;DHT22;10922;45.572;10.002;2023-05-29T13:05:05;35.60;99.90
21522;DHT22;10922;45.572;10.002;2023-05-29T13:07:32;35.30;99.90
21522;DHT22;10922;45.572;10.002;2023-05-29T13:09:59;37.60;99.90
21522;DHT22;10922;45.572;10.002;2023-05-29T13:12:25;37.60;99.90
21522;DHT22;10922;45.572;10.002;2023-05-29T13:14:51;37.30;99.90
21522;DHT22;10922;45.572;10.002;2023-05-29T13:17:16;37.70;99.90
21522;DHT22;10922;45.572;10.002;2023-05-29T13:19:43;38.90;99.90
21522;DHT22;10922;45.572;10.002;2023-05-29T13:22:08;38.70;99.90
21522;DHT22;10922;45.572;10.002;2023-05-29T13:24:34;33.40;99.90
21522;DHT22;10922;45.572;10.002;2023-05-29T13:27:00;31.60;99.90
21522;DHT22;10922;45.572;10.002;2023-05-29T13:29:26;34.90;99.90
21522;DHT22;10922;45.572;10.002;2023-05-29T13:31:52;37.00;99.90
21522;DHT22;10922;45.572;10.002;2023-05-29T13:34:17;34.20;99.90
21522;DHT22;10922;45.572;10.002;2023-05-29T13:36:43;31.60;99.90
21522;DHT22;10922;45.572;10.002;2023-05-29T13:39:10;31.10;99.90
21522;DHT22;10922;45.572;10.002;2023-05-29T13:41:36;30.50;99.90
21522;DHT22;10922;45.572;10.002;2023-05-29T13:44:02;30.60;99.90
21522;DHT22;10922;45.572;10.002;2023-05-29T13:46:28;30.60;99.90
21522;DHT22;10922;45.572;10.002;2023-05-29T13:48:54;30.50;99.90
21522;DHT22;10922;45.572;10.002;2023-05-29T13:51:19;30.10;99.90
21522;DHT22;10922;45.572;10.002;2023-05-29T13:53:45;32.00;99.90
21522;DHT22;10922;45.572;10.002;2023-05-29T13:56:11;31.70;99.90
21522;DHT22;10922;45.572;10.002;2023-05-29T13:58:36;33.00;99.90
21522;DHT22;10922;45.572;10.002;2023-05-29T14:01:02;35.80;99.90
21522;DHT22;10922;45.572;10.002;2023-05-29T14:03:28;32.70;99.90
21522;DHT22;10922;45.572;10.002;2023-05-29T14:05:57;31.50;99.90
21522;DHT22;10922;45.572;10.002;2023-05-29T14:08:22;32.00;99.90
21522;DHT22;10922;45.572;10.002;2023-05-29T14:10:48;34.40;99.90
21522;DHT22;10922;45.572;10.002;2023-05-29T14:13:16;32.20;99.90
21522;DHT22;10922;45.572;10.002;2023-05-29T14:15:41;31.20;99.90
21522;DHT22;10922;45.572;10.002;2023-05-29T14:18:07;31.30;99.90
21522;DHT22;10922;45.572;10.002;2023-05-29T14:20:33;32.10;99.90
21522;DHT22;10922;45.572;10.002;2023-05-29T14:22:59;31.50;99.90
21522;DHT22;10922;45.572;10.002;2023-05-29T14:25:30;33.80;99.90
21522;DHT22;10922;45.572;10.002;2023-05-29T14:27:55;33.10;99.90
21522;DHT22;10922;45.572;10.002;2023-05-29T14:30:21;31.80;99.90
21522;DHT22;10922;45.572;10.002;2023-05-29T14:32:47;32.50;99.90
21522;DHT22;10922;45.572;10.002;2023-05-29T14:35:13;32.90;99.90
21522;DHT22;10922;45.572;10.002;2023-05-29T14:37:39;32.90;99.90
21522;DHT22;10922;45.572;10.002;2023-05-29T14:40:05;32.00;99.90
21522;DHT22;10922;45.572;10.002;2023-05-29T14:42:31;31.10;99.90
21522;DHT22;10922;45.572;10.002;2023-05-29T14:44:58;30.80;99.90
21522;DHT22;10922;45.572;10.002;2023-05-29T14:47:24;30.50;99.90
21522;DHT22;10922;45.572;10.002;2023-05-29T14:49:49;29.90;99.90
21522;DHT22;10922;45.572;10.002;2023-05-29T14:52:15;29.70;99.90
21522;DHT22;10922;45.572;10.002;2023-05-29T14:54:40;29.50;99.90
21522;DHT22;10922;45.572;10.002;2023-05-29T14:57:06;29.60;99.90
21522;DHT22;10922;45.572;10.002;2023-05-29T14:59:32;29.10;99.90
21522;DHT22;10922;45.572;10.002;2023-05-29T15:01:57;28.90;99.90
21522;DHT22;10922;45.572;10.002;2023-05-29T15:04:25;28.80;99.90
21522;DHT22;10922;45.572;10.002;2023-05-29T15:06:51;28.40;99.90
21522;DHT22;10922;45.572;10.002;2023-05-29T15:09:16;28.40;99.90
21522;DHT22;10922;45.572;10.002;2023-05-29T15:11:42;28.20;99.90
21522;DHT22;10922;45.572;10.002;2023-05-29T15:14:08;28.20;99.90
21522;DHT22;10922;45.572;10.002;2023-05-29T15:16:34;28.20;99.90
21522;DHT22;10922;45.572;10.002;2023-05-29T15:19:00;28.10;99.90
21522;DHT22;10922;45.572;10.002;2023-05-29T15:21:26;28.00;99.90
21522;DHT22;10922;45.572;10.002;2023-05-29T15:23:51;27.50;99.90
21522;DHT22;10922;45.572;10.002;2023-05-29T15:26:17;27.30;99.90
21522;DHT22;10922;45.572;10.002;2023-05-29T15:28:43;27.30;99.90
21522;DHT22;10922;45.572;10.002;2023-05-29T15:31:08;27.10;99.90
21522;DHT22;10922;45.572;10.002;2023-05-29T15:33:34;27.00;99.90
21522;DHT22;10922;45.572;10.002;2023-05-29T15:36:00;26.90;99.90
21522;DHT22;10922;45.572;10.002;2023-05-29T15:38:25;26.90;99.90
21522;DHT22;10922;45.572;10.002;2023-05-29T15:40:51;26.90;99.90